Time;durP1;ratioP1;P1;durP2;ratioP2;P2;SDS_P1;SDS_P2;PMS_P1;PMS_P2;Temp;Humidity;BMP_temperature;BMP_pressure;BME280_temperature;BME280_humidity;BME280_pressure;Samples;Min_cycle;Max_cycle;Signal;HPM_P1;HPM_P2
2022/03/25 00:01:45;;;;;;;107.45;56.20;;;;;;;;;;4973070;28;20462;-67
2022/03/25 00:04:11;;;;;;;111.03;56.75;;;;;;;;;;4971851;28;20047;-67
2022/03/25 00:06:37;;;;;;;110.82;56.38;;;;;;;;;;4972041;28;20516;-67
2022/03/25 00:09:03;;;;;;;106.70;56.50;;;;;;;;;;4972694;28;20043;-67
2022/03/25 00:11:30;;;;;;;114.60;60.30;;;;;;;;;;4972864;28;20482;-67
2022/03/25 00:13:56;;;;;;;111.90;57.50;;;;;;;;;;4972380;28;20047;-67
2022/03/25 00:16:24;;;;;;;110.60;59.90;;;;;;;;;;4972658;28;20035;-67
2022/03/25 00:18:50;;;;;;;109.60;57.97;;;;;;;;;;4973004;28;20053;-67
2022/03/25 00:21:16;;;;;;;113.85;59.00;;;;;;;;;;4972478;28;20047;-67
2022/03/25 00:23:42;;;;;;;107.57;57.00;;;;;;;;;;4971634;28;20049;-67
2022/03/25 00:26:08;;;;;;;111.53;57.85;;;;;;;;;;4980432;28;20043;-67
2022/03/25 00:28:36;;;;;;;110.05;58.92;;;;;;;;;;4991336;28;20149;-67
2022/03/25 00:31:03;;;;;;;108.63;54.25;;;;;;;;;;4991830;28;20062;-67
2022/03/25 00:33:31;;;;;;;111.15;56.47;;;;;;;;;;4992344;28;20062;-67
2022/03/25 00:35:57;;;;;;;111.63;56.70;;;;;;;;;;4990338;28;20157;-67
2022/03/25 00:38:23;;;;;;;109.68;58.08;;;;;;;;;;4992193;28;20042;-67
2022/03/25 00:40:49;;;;;;;107.30;56.45;;;;;;;;;;4992077;28;20093;-67
2022/03/25 00:43:16;;;;;;;106.57;54.90;;;;;;;;;;4990896;28;20137;-67
2022/03/25 00:45:42;;;;;;;102.18;55.05;;;;;;;;;;4991750;28;20053;-67
2022/03/25 00:48:08;;;;;;;110.63;55.83;;;;;;;;;;4991936;28;20044;-67
2022/03/25 00:50:35;;;;;;;111.25;54.25;;;;;;;;;;4991188;28;20089;-67
2022/03/25 00:53:01;;;;;;;112.50;55.75;;;;;;;;;;4991791;28;20517;-67
2022/03/25 00:55:27;;;;;;;98.40;50.67;;;;;;;;;;4991955;28;20074;-67
2022/03/25 00:57:53;;;;;;;111.68;55.75;;;;;;;;;;4991461;28;20042;-67
2022/03/25 01:00:20;;;;;;;101.07;52.35;;;;;;;;;;4991696;28;20049;-67
2022/03/25 01:02:46;;;;;;;99.65;51.78;;;;;;;;;;4991603;28;20061;-67
2022/03/25 01:05:12;;;;;;;108.63;55.22;;;;;;;;;;4991955;28;20121;-67
2022/03/25 01:07:38;;;;;;;107.53;56.13;;;;;;;;;;4994835;28;20121;-67
2022/03/25 01:10:04;;;;;;;98.88;51.15;;;;;;;;;;4995411;28;20185;-67
2022/03/25 01:12:31;;;;;;;101.15;52.30;;;;;;;;;;4977960;28;20777;-67
2022/03/25 01:14:57;;;;;;;105.25;52.90;;;;;;;;;;4993486;28;20042;-67
2022/03/25 01:17:23;;;;;;;111.13;56.70;;;;;;;;;;4995281;28;20173;-67
2022/03/25 01:19:49;;;;;;;106.85;54.92;;;;;;;;;;4995263;28;20065;-67
2022/03/25 01:22:15;;;;;;;110.40;55.60;;;;;;;;;;4994522;28;20518;-67
2022/03/25 01:24:41;;;;;;;111.55;55.63;;;;;;;;;;4995147;28;20101;-67
2022/03/25 01:27:07;;;;;;;108.00;56.03;;;;;;;;;;4977839;28;20042;-67
2022/03/25 01:29:33;;;;;;;107.13;54.42;;;;;;;;;;4974695;28;20049;-67
2022/03/25 01:32:01;;;;;;;102.55;53.63;;;;;;;;;;4975127;28;20046;-67
2022/03/25 01:34:27;;;;;;;108.85;55.88;;;;;;;;;;4973894;28;20125;-67
2022/03/25 01:36:54;;;;;;;103.32;53.65;;;;;;;;;;4973419;28;20504;-67
2022/03/25 01:39:20;;;;;;;101.00;50.97;;;;;;;;;;4974349;28;20492;-67
2022/03/25 01:41:47;;;;;;;100.65;53.28;;;;;;;;;;4973982;28;20050;-67
2022/03/25 01:44:13;;;;;;;96.70;50.35;;;;;;;;;;4974358;28;20523;-67
2022/03/25 01:46:40;;;;;;;98.47;51.58;;;;;;;;;;4975356;28;20039;-67
2022/03/25 01:49:06;;;;;;;101.53;53.78;;;;;;;;;;4975279;28;20137;-67
2022/03/25 01:51:36;;;;;;;99.18;51.92;;;;;;;;;;4974560;28;20050;-67
2022/03/25 01:54:18;;;;;;;103.35;52.05;;;;;;;;;;4975191;28;20126;-67
2022/03/25 01:56:44;;;;;;;102.90;52.22;;;;;;;;;;4975017;28;20047;-67
2022/03/25 01:59:10;;;;;;;104.82;53.15;;;;;;;;;;4974400;28;20421;-67
2022/03/25 02:01:40;;;;;;;91.45;47.67;;;;;;;;;;4974899;28;20061;-67
2022/03/25 02:04:06;;;;;;;92.78;47.05;;;;;;;;;;4975146;28;20050;-67
2022/03/25 02:06:32;;;;;;;88.72;47.90;;;;;;;;;;4972738;28;20042;-67
2022/03/25 02:08:58;;;;;;;93.80;48.60;;;;;;;;;;4973590;28;20081;-67
2022/03/25 02:11:26;;;;;;;93.70;49.30;;;;;;;;;;4974590;28;20043;-67
2022/03/25 02:13:52;;;;;;;90.68;46.67;;;;;;;;;;4974093;28;20086;-67
2022/03/25 02:16:18;;;;;;;99.18;51.53;;;;;;;;;;4974752;28;20047;-67
2022/03/25 02:18:44;;;;;;;95.80;48.70;;;;;;;;;;4973931;28;20393;-67
2022/03/25 02:21:10;;;;;;;89.75;47.33;;;;;;;;;;4972589;28;20051;-67
2022/03/25 02:23:36;;;;;;;98.70;52.00;;;;;;;;;;4974762;28;20097;-67
2022/03/25 02:26:03;;;;;;;95.38;48.53;;;;;;;;;;4981596;28;20030;-67
2022/03/25 02:28:29;;;;;;;83.40;45.53;;;;;;;;;;4993369;28;20440;-67
2022/03/25 02:30:55;;;;;;;99.95;50.63;;;;;;;;;;4992539;28;20057;-67
2022/03/25 02:33:21;;;;;;;91.90;49.17;;;;;;;;;;4993838;28;20644;-67
2022/03/25 02:35:48;;;;;;;100.15;50.50;;;;;;;;;;4991951;28;20050;-67
2022/03/25 02:38:16;;;;;;;95.22;48.38;;;;;;;;;;4993719;28;20035;-67
2022/03/25 02:40:42;;;;;;;91.18;48.88;;;;;;;;;;4993702;28;20046;-67
2022/03/25 02:43:11;;;;;;;94.50;48.13;;;;;;;;;;4992601;28;20132;-67
2022/03/25 02:45:37;;;;;;;93.35;48.92;;;;;;;;;;4993394;28;20180;-67
2022/03/25 02:48:04;;;;;;;90.20;46.90;;;;;;;;;;4993553;28;20050;-67
2022/03/25 02:50:31;;;;;;;82.85;45.90;;;;;;;;;;4992926;28;20042;-67
2022/03/25 02:52:57;;;;;;;89.80;47.08;;;;;;;;;;4991933;28;20109;-67
2022/03/25 02:55:24;;;;;;;109.68;43.38;;;;;;;;;;4992231;28;20038;-67
2022/03/25 02:57:51;;;;;;;249.20;46.63;;;;;;;;;;4992782;28;20042;-67
2022/03/25 03:00:19;;;;;;;91.75;42.28;;;;;;;;;;4993530;28;20392;-67
2022/03/25 03:02:45;;;;;;;89.65;43.88;;;;;;;;;;4993245;28;20046;-67
2022/03/25 03:05:11;;;;;;;87.20;47.17;;;;;;;;;;4992357;28;20125;-67
2022/03/25 03:07:37;;;;;;;90.22;45.95;;;;;;;;;;4993141;28;20392;-67
2022/03/25 03:10:05;;;;;;;89.85;46.00;;;;;;;;;;4991670;28;20042;-67
2022/03/25 03:12:32;;;;;;;89.40;47.53;;;;;;;;;;4992434;28;20042;-67
2022/03/25 03:14:58;;;;;;;87.03;45.13;;;;;;;;;;4993311;28;20038;-67
2022/03/25 03:17:24;;;;;;;86.45;43.90;;;;;;;;;;4992812;28;20042;-67
2022/03/25 03:19:51;;;;;;;91.60;48.58;;;;;;;;;;4992546;28;20125;-67
2022/03/25 03:22:20;;;;;;;87.60;45.53;;;;;;;;;;4992090;28;20045;-67
2022/03/25 03:24:46;;;;;;;112.72;45.83;;;;;;;;;;4993093;28;20451;-67
2022/03/25 03:27:12;;;;;;;93.93;43.90;;;;;;;;;;4975771;28;20497;-67
2022/03/25 03:29:38;;;;;;;101.60;42.30;;;;;;;;;;4973503;28;20039;-67
2022/03/25 03:32:05;;;;;;;80.95;43.53;;;;;;;;;;4973376;28;20046;-67
2022/03/25 03:34:31;;;;;;;80.85;40.55;;;;;;;;;;4972794;28;20038;-67
2022/03/25 03:36:58;;;;;;;72.45;40.33;;;;;;;;;;4973099;28;20031;-67
2022/03/25 03:39:24;;;;;;;83.13;42.72;;;;;;;;;;4973476;28;20378;-67
2022/03/25 03:41:50;;;;;;;74.00;38.90;;;;;;;;;;4972569;28;20043;-67
2022/03/25 03:44:16;;;;;;;67.82;36.78;;;;;;;;;;4972913;28;20145;-67
2022/03/25 03:46:42;;;;;;;61.15;35.67;;;;;;;;;;4973315;28;20097;-67
2022/03/25 03:49:08;;;;;;;64.10;35.30;;;;;;;;;;4972695;28;20062;-67
2022/03/25 03:51:34;;;;;;;63.10;33.58;;;;;;;;;;4972825;28;20371;-67
2022/03/25 03:54:00;;;;;;;56.67;32.40;;;;;;;;;;4973175;28;20425;-67
2022/03/25 03:56:27;;;;;;;61.45;34.28;;;;;;;;;;4971150;28;20050;-67
2022/03/25 03:58:53;;;;;;;51.83;31.20;;;;;;;;;;4973204;28;20039;-67
2022/03/25 04:01:19;;;;;;;56.03;31.75;;;;;;;;;;4971770;28;20470;-67
2022/03/25 04:03:46;;;;;;;52.92;31.05;;;;;;;;;;4972503;28;20406;-67
2022/03/25 04:06:12;;;;;;;67.13;33.42;;;;;;;;;;4972662;28;20043;-67
2022/03/25 04:08:39;;;;;;;103.32;34.40;;;;;;;;;;4973000;28;20064;-67
2022/03/25 04:11:05;;;;;;;272.77;39.63;;;;;;;;;;4971889;28;20039;-67
2022/03/25 04:13:31;;;;;;;222.77;35.75;;;;;;;;;;4972950;28;20053;-67
2022/03/25 04:15:57;;;;;;;192.35;36.55;;;;;;;;;;4973049;28;20117;-67
2022/03/25 04:18:23;;;;;;;352.02;41.38;;;;;;;;;;4972390;28;20038;-67
2022/03/25 04:20:50;;;;;;;201.43;36.97;;;;;;;;;;4972998;28;20042;-67
2022/03/25 04:23:16;;;;;;;112.85;32.67;;;;;;;;;;4972978;28;20520;-67
2022/03/25 04:25:42;;;;;;;134.18;34.05;;;;;;;;;;4976450;28;20560;-67
2022/03/25 04:28:09;;;;;;;163.80;33.28;;;;;;;;;;4991817;28;20046;-67
2022/03/25 04:30:37;;;;;;;145.38;35.03;;;;;;;;;;4992158;28;20061;-67
2022/03/25 04:33:04;;;;;;;179.90;33.28;;;;;;;;;;4991154;28;20046;-67
2022/03/25 04:35:30;;;;;;;120.30;31.65;;;;;;;;;;4992002;28;20495;-67
2022/03/25 04:37:57;;;;;;;161.77;33.85;;;;;;;;;;4992156;28;20639;-67
2022/03/25 04:40:25;;;;;;;166.80;35.55;;;;;;;;;;4991452;28;20053;-67
2022/03/25 04:42:52;;;;;;;169.02;34.08;;;;;;;;;;4995707;28;20062;-67
2022/03/25 04:45:19;;;;;;;84.57;32.03;;;;;;;;;;4995669;28;20046;-67
2022/03/25 04:47:45;;;;;;;81.80;31.80;;;;;;;;;;4995118;28;20068;-67
2022/03/25 04:50:11;;;;;;;77.40;32.63;;;;;;;;;;4995915;28;20050;-67
2022/03/25 04:52:37;;;;;;;87.35;34.08;;;;;;;;;;4995443;28;20039;-67
2022/03/25 04:55:04;;;;;;;206.50;34.42;;;;;;;;;;4995236;28;20050;-67
2022/03/25 04:57:30;;;;;;;297.77;38.72;;;;;;;;;;4995437;28;20125;-67
2022/03/25 04:59:56;;;;;;;291.10;37.03;;;;;;;;;;4995895;28;20038;-67
2022/03/25 05:02:23;;;;;;;116.90;32.67;;;;;;;;;;4995045;28;20770;-67
2022/03/25 05:04:49;;;;;;;97.38;33.38;;;;;;;;;;4995586;28;20034;-67
2022/03/25 05:07:16;;;;;;;170.93;34.15;;;;;;;;;;4995385;28;20482;-67
2022/03/25 05:09:42;;;;;;;146.18;32.90;;;;;;;;;;4994731;28;20085;-67
2022/03/25 05:12:09;;;;;;;96.00;33.10;;;;;;;;;;4993578;28;20498;-67
2022/03/25 05:14:35;;;;;;;72.10;32.30;;;;;;;;;;4995487;28;20085;-67
2022/03/25 05:17:01;;;;;;;101.68;34.10;;;;;;;;;;4994817;28;20092;-67
2022/03/25 05:19:27;;;;;;;67.70;32.30;;;;;;;;;;4995451;28;20042;-67
2022/03/25 05:21:53;;;;;;;64.35;33.08;;;;;;;;;;4994958;28;20104;-67
2022/03/25 05:24:19;;;;;;;80.40;35.00;;;;;;;;;;4993430;28;20046;-67
2022/03/25 05:26:45;;;;;;;75.63;34.85;;;;;;;;;;4982144;28;20481;-67
2022/03/25 05:29:11;;;;;;;65.20;33.22;;;;;;;;;;4975482;28;20085;-67
2022/03/25 05:31:38;;;;;;;66.50;33.95;;;;;;;;;;4975151;28;20055;-67
2022/03/25 05:34:05;;;;;;;65.38;31.10;;;;;;;;;;4974567;28;20038;-67
2022/03/25 05:36:34;;;;;;;101.68;32.70;;;;;;;;;;4975619;28;20053;-67
2022/03/25 05:39:00;;;;;;;69.20;32.40;;;;;;;;;;4975528;28;20041;-67
2022/03/25 05:41:27;;;;;;;58.70;31.88;;;;;;;;;;4974710;28;20054;-67
2022/03/25 05:43:53;;;;;;;60.95;33.92;;;;;;;;;;4973767;28;20137;-67
2022/03/25 05:46:19;;;;;;;58.92;32.55;;;;;;;;;;4975341;28;20049;-67
2022/03/25 05:48:46;;;;;;;57.55;31.40;;;;;;;;;;4973307;28;20050;-67
2022/03/25 05:51:13;;;;;;;55.17;31.45;;;;;;;;;;4974788;28;20051;-67
2022/03/25 05:53:39;;;;;;;58.17;31.63;;;;;;;;;;4974115;28;20058;-67
2022/03/25 05:56:06;;;;;;;59.47;33.25;;;;;;;;;;4974206;28;20812;-67
2022/03/25 05:58:33;;;;;;;57.28;33.22;;;;;;;;;;4975110;28;20098;-67
2022/03/25 06:01:00;;;;;;;52.97;30.70;;;;;;;;;;4974978;28;20085;-67
2022/03/25 06:03:26;;;;;;;53.22;30.48;;;;;;;;;;4974466;28;20054;-67
2022/03/25 06:05:53;;;;;;;49.20;28.20;;;;;;;;;;4974825;28;20047;-67
2022/03/25 06:08:19;;;;;;;53.65;29.33;;;;;;;;;;4973693;28;20408;-67
2022/03/25 06:10:45;;;;;;;58.83;31.25;;;;;;;;;;4972699;28;20035;-67
2022/03/25 06:13:12;;;;;;;70.55;34.90;;;;;;;;;;4973549;28;20082;-67
2022/03/25 06:15:38;;;;;;;69.97;32.70;;;;;;;;;;4973228;28;20450;-67
2022/03/25 06:18:04;;;;;;;65.78;31.60;;;;;;;;;;4974191;28;20042;-67
2022/03/25 06:20:30;;;;;;;65.47;33.83;;;;;;;;;;4973309;28;20046;-67
2022/03/25 06:22:56;;;;;;;64.70;33.65;;;;;;;;;;4974918;28;20042;-67
2022/03/25 06:25:22;;;;;;;71.63;35.03;;;;;;;;;;4975531;28;20054;-67
2022/03/25 06:27:50;;;;;;;64.03;33.38;;;;;;;;;;4993955;28;20530;-67
2022/03/25 06:30:16;;;;;;;61.13;33.63;;;;;;;;;;4993980;28;20058;-67
2022/03/25 06:32:42;;;;;;;63.25;34.92;;;;;;;;;;4993164;28;20384;-67
2022/03/25 06:35:09;;;;;;;65.05;34.92;;;;;;;;;;4993950;28;20110;-67
2022/03/25 06:37:36;;;;;;;69.45;36.30;;;;;;;;;;4993595;28;20049;-67
2022/03/25 06:40:02;;;;;;;65.65;35.10;;;;;;;;;;4993266;28;20042;-67
2022/03/25 06:42:28;;;;;;;66.60;35.33;;;;;;;;;;4993577;28;20073;-67
2022/03/25 06:44:54;;;;;;;63.67;34.30;;;;;;;;;;4993765;28;20105;-67
2022/03/25 06:47:20;;;;;;;64.97;35.30;;;;;;;;;;4993114;28;20112;-67
2022/03/25 06:49:46;;;;;;;66.78;35.50;;;;;;;;;;4993652;28;20380;-67
2022/03/25 06:52:12;;;;;;;62.10;33.78;;;;;;;;;;4992135;28;20054;-67
2022/03/25 06:54:38;;;;;;;70.20;34.75;;;;;;;;;;4992720;28;20117;-67
2022/03/25 06:57:05;;;;;;;71.30;35.33;;;;;;;;;;4993099;28;20044;-67
2022/03/25 06:59:31;;;;;;;68.07;35.10;;;;;;;;;;4993754;28;20042;-67
2022/03/25 07:01:57;;;;;;;71.25;36.13;;;;;;;;;;4992645;28;20048;-67
2022/03/25 07:04:24;;;;;;;64.65;35.85;;;;;;;;;;4991470;28;20042;-67
2022/03/25 07:06:50;;;;;;;65.50;36.00;;;;;;;;;;4993158;28;20046;-67
2022/03/25 07:09:16;;;;;;;68.40;36.92;;;;;;;;;;4991499;28;20085;-67
2022/03/25 07:11:42;;;;;;;72.88;37.28;;;;;;;;;;4992854;28;20042;-67
2022/03/25 07:14:08;;;;;;;68.63;35.67;;;;;;;;;;4993460;28;20074;-67
2022/03/25 07:16:37;;;;;;;77.57;38.28;;;;;;;;;;4992518;28;20043;-67
2022/03/25 07:19:03;;;;;;;72.85;37.38;;;;;;;;;;4991968;28;20488;-67
2022/03/25 07:21:29;;;;;;;70.03;36.50;;;;;;;;;;4990413;28;20042;-64
2022/03/25 07:23:55;;;;;;;76.97;38.67;;;;;;;;;;4992054;28;20096;-63
2022/03/25 07:26:21;;;;;;;78.78;39.92;;;;;;;;;;4986056;28;20380;-63
2022/03/25 07:28:47;;;;;;;74.63;38.35;;;;;;;;;;4989313;28;20039;-63
2022/03/25 07:31:13;;;;;;;78.50;39.22;;;;;;;;;;4990933;28;20053;-63
2022/03/25 07:33:39;;;;;;;78.15;39.28;;;;;;;;;;4982940;28;20046;-63
2022/03/25 07:36:06;;;;;;;78.07;40.85;;;;;;;;;;4972895;28;20058;-64
2022/03/25 07:38:32;;;;;;;77.93;39.78;;;;;;;;;;4971661;28;20050;-63
2022/03/25 07:40:58;;;;;;;80.40;39.72;;;;;;;;;;4976144;28;20042;-64
2022/03/25 07:43:25;;;;;;;81.95;39.85;;;;;;;;;;4988763;28;20056;-65
2022/03/25 07:45:51;;;;;;;78.88;39.78;;;;;;;;;;4980254;28;20085;-64
2022/03/25 07:48:17;;;;;;;76.53;40.45;;;;;;;;;;4971656;28;20465;-63
2022/03/25 07:50:45;;;;;;;73.57;39.20;;;;;;;;;;4984152;28;20041;-64
2022/03/25 07:53:11;;;;;;;74.20;38.50;;;;;;;;;;4989747;28;20035;-63
2022/03/25 07:55:38;;;;;;;67.25;35.33;;;;;;;;;;4976921;28;20575;-63
2022/03/25 07:58:04;;;;;;;74.70;37.67;;;;;;;;;;4990097;28;20519;-64
2022/03/25 08:00:31;;;;;;;69.95;35.88;;;;;;;;;;4975718;28;20049;-64
2022/03/25 08:02:57;;;;;;;64.50;34.17;;;;;;;;;;4982509;28;20408;-64
2022/03/25 08:05:23;;;;;;;66.18;34.85;;;;;;;;;;4979604;28;20038;-61
2022/03/25 08:07:52;;;;;;;66.43;34.22;;;;;;;;;;4978340;28;20129;-61
2022/03/25 08:10:22;;;;;;;65.45;33.35;;;;;;;;;;4983867;28;20045;-62
2022/03/25 08:12:49;;;;;;;64.32;32.75;;;;;;;;;;4984598;28;20092;-61
2022/03/25 08:15:16;;;;;;;63.78;32.97;;;;;;;;;;4977788;28;20117;-62
2022/03/25 08:17:49;;;;;;;66.55;33.83;;;;;;;;;;4989680;28;20042;-60
2022/03/25 08:20:42;;;;;;;66.10;34.50;;;;;;;;;;4979988;28;20556;-65
2022/03/25 08:27:48;;;;;;;60.95;31.73;;;;;;;;;;4985929;28;20054;-65
2022/03/25 08:28:46;;;;;;;59.05;31.17;;;;;;;;;;4986635;28;20042;-66
2022/03/25 08:31:13;;;;;;;55.88;32.58;;;;;;;;;;4989954;28;20047;-64
2022/03/25 08:33:39;;;;;;;63.65;32.58;;;;;;;;;;4988472;28;20038;-64
2022/03/25 08:36:05;;;;;;;62.05;31.05;;;;;;;;;;4991215;28;20040;-64
2022/03/25 08:38:31;;;;;;;57.30;31.85;;;;;;;;;;4980221;28;20408;-67
2022/03/25 08:40:57;;;;;;;55.55;30.75;;;;;;;;;;4984389;28;20409;-65
2022/03/25 08:43:23;;;;;;;55.35;30.05;;;;;;;;;;4972250;28;20099;-68
2022/03/25 08:45:49;;;;;;;56.17;31.00;;;;;;;;;;4973969;28;20373;-65
2022/03/25 08:48:15;;;;;;;56.53;30.10;;;;;;;;;;4977058;28;20046;-65
2022/03/25 08:50:41;;;;;;;53.33;30.63;;;;;;;;;;4986140;28;20039;-65
2022/03/25 08:53:07;;;;;;;51.20;28.08;;;;;;;;;;4986841;28;20500;-66
2022/03/25 08:55:33;;;;;;;55.35;29.95;;;;;;;;;;4974341;28;20051;-66
2022/03/25 08:57:59;;;;;;;55.95;30.63;;;;;;;;;;4989673;28;20038;-66
2022/03/25 09:00:26;;;;;;;54.72;30.23;;;;;;;;;;4988706;28;20049;-65
2022/03/25 09:02:52;;;;;;;54.28;28.80;;;;;;;;;;4979920;28;20612;-65
2022/03/25 09:05:18;;;;;;;56.65;28.90;;;;;;;;;;4982835;28;20047;-65
2022/03/25 09:07:44;;;;;;;55.45;29.40;;;;;;;;;;4981311;28;20042;-65
2022/03/25 09:10:14;;;;;;;54.45;29.00;;;;;;;;;;4989508;28;20061;-66
2022/03/25 09:12:41;;;;;;;48.22;27.85;;;;;;;;;;4987606;28;20048;-67
2022/03/25 09:15:08;;;;;;;53.00;27.92;;;;;;;;;;4986655;28;20387;-67
2022/03/25 09:17:34;;;;;;;49.53;27.70;;;;;;;;;;4983537;28;20054;-68
2022/03/25 09:20:03;;;;;;;52.72;27.88;;;;;;;;;;4972124;28;20042;-68
2022/03/25 09:22:29;;;;;;;58.80;28.20;;;;;;;;;;4974902;28;20664;-67
2022/03/25 09:24:55;;;;;;;51.35;26.77;;;;;;;;;;4980977;28;20066;-67
2022/03/25 09:27:21;;;;;;;51.35;27.40;;;;;;;;;;4980301;28;20080;-65
2022/03/25 09:29:48;;;;;;;54.72;28.95;;;;;;;;;;4973923;28;20038;-66
2022/03/25 09:32:14;;;;;;;53.75;27.23;;;;;;;;;;4981452;28;20051;-67
2022/03/25 09:37:24;;;;;;;50.08;26.73;;;;;;;;;;4975961;28;20098;-66
2022/03/25 09:39:51;;;;;;;48.33;27.40;;;;;;;;;;4978373;28;20428;-67
2022/03/25 09:42:17;;;;;;;52.42;28.33;;;;;;;;;;4984142;28;20050;-64
2022/03/25 09:44:43;;;;;;;49.92;27.15;;;;;;;;;;4981820;28;20038;-64
2022/03/25 09:47:14;;;;;;;48.75;25.73;;;;;;;;;;4975482;28;20043;-65
2022/03/25 09:49:41;;;;;;;49.33;28.15;;;;;;;;;;4987699;28;20034;-66
2022/03/25 09:52:07;;;;;;;47.20;26.27;;;;;;;;;;4981717;28;20038;-66
2022/03/25 09:54:34;;;;;;;57.00;27.98;;;;;;;;;;4991439;28;20061;-66
2022/03/25 09:57:01;;;;;;;48.85;26.83;;;;;;;;;;4992328;28;20050;-65
2022/03/25 09:59:27;;;;;;;47.08;24.08;;;;;;;;;;4990815;28;20563;-66
2022/03/25 10:01:53;;;;;;;43.75;24.42;;;;;;;;;;4985952;28;20047;-66
2022/03/25 10:04:38;;;;;;;41.25;22.38;;;;;;;;;;4990639;28;20057;-65
2022/03/25 10:07:14;;;;;;;44.25;24.00;;;;;;;;;;4977035;28;20042;-67
2022/03/25 10:09:40;;;;;;;40.40;22.58;;;;;;;;;;4976586;28;20035;-66
2022/03/25 10:12:27;;;;;;;45.72;22.60;;;;;;;;;;4989919;28;20047;-67
2022/03/25 10:15:12;;;;;;;46.70;22.58;;;;;;;;;;4977641;28;20070;-66
2022/03/25 10:17:48;;;;;;;40.47;22.00;;;;;;;;;;4988714;28;20035;-65
2022/03/25 10:20:15;;;;;;;42.75;22.90;;;;;;;;;;4975160;28;20134;-68
2022/03/25 10:22:56;;;;;;;43.80;23.17;;;;;;;;;;4973448;28;20043;-67
2022/03/25 10:25:32;;;;;;;42.30;21.98;;;;;;;;;;4987887;28;20477;-66
2022/03/25 10:27:58;;;;;;;41.22;21.55;;;;;;;;;;4987673;28;20035;-66
2022/03/25 10:30:38;;;;;;;40.25;21.20;;;;;;;;;;4982052;28;20381;-66
2022/03/25 10:33:10;;;;;;;39.03;21.25;;;;;;;;;;4977632;28;20090;-65
2022/03/25 10:35:54;;;;;;;43.58;21.77;;;;;;;;;;4990993;28;20042;-67
2022/03/25 10:38:21;;;;;;;44.80;22.42;;;;;;;;;;4977698;28;21678;-66
2022/03/25 10:40:54;;;;;;;42.88;21.65;;;;;;;;;;4983122;28;20469;-67
2022/03/25 10:43:22;;;;;;;41.65;22.60;;;;;;;;;;4978341;28;20065;-65
2022/03/25 10:45:48;;;;;;;39.75;22.13;;;;;;;;;;4980734;28;20046;-65
2022/03/25 10:48:15;;;;;;;42.63;22.40;;;;;;;;;;4979305;28;20174;-65
2022/03/25 10:51:00;;;;;;;43.17;22.52;;;;;;;;;;4980924;28;20061;-64
2022/03/25 10:53:27;;;;;;;42.30;22.33;;;;;;;;;;4982515;28;20503;-65
2022/03/25 10:55:57;;;;;;;43.55;21.00;;;;;;;;;;4987762;28;20042;-66
2022/03/25 10:58:24;;;;;;;37.72;20.50;;;;;;;;;;4981536;28;20039;-67
2022/03/25 11:00:50;;;;;;;38.58;20.73;;;;;;;;;;4987766;28;20046;-67
2022/03/25 11:03:18;;;;;;;37.78;20.88;;;;;;;;;;4980783;28;20051;-67
2022/03/25 11:05:45;;;;;;;41.10;20.77;;;;;;;;;;4983543;28;20166;-67
2022/03/25 11:08:11;;;;;;;38.42;20.55;;;;;;;;;;4988038;28;20038;-67
2022/03/25 11:10:38;;;;;;;37.30;19.30;;;;;;;;;;4983312;28;20065;-66
2022/03/25 11:13:04;;;;;;;37.25;19.77;;;;;;;;;;4988152;28;20054;-64
2022/03/25 11:15:31;;;;;;;36.13;19.10;;;;;;;;;;4976502;28;20493;-66
2022/03/25 11:17:57;;;;;;;38.60;19.92;;;;;;;;;;4982246;28;20038;-67
2022/03/25 11:20:25;;;;;;;38.85;20.48;;;;;;;;;;4990985;28;20038;-66
2022/03/25 11:23:12;;;;;;;40.22;21.27;;;;;;;;;;4989417;28;20046;-66
2022/03/25 11:25:44;;;;;;;38.78;20.48;;;;;;;;;;4990421;28;20099;-66
2022/03/25 11:28:13;;;;;;;42.53;21.75;;;;;;;;;;4985081;28;20673;-65
2022/03/25 11:30:39;;;;;;;45.45;20.98;;;;;;;;;;4984394;28;20051;-67
2022/03/25 11:33:06;;;;;;;38.85;20.27;;;;;;;;;;4992203;28;20038;-69
2022/03/25 11:35:36;;;;;;;39.50;19.88;;;;;;;;;;4985319;28;20046;-65
2022/03/25 11:38:09;;;;;;;40.17;20.10;;;;;;;;;;4995968;28;20061;-66
2022/03/25 11:40:35;;;;;;;;;;;;;;;;;;4981798;28;20092;-66
2022/03/25 11:43:12;;;;;;;45.55;20.45;;;;;;;;;;4988826;28;19973;-69
2022/03/25 11:45:38;;;;;;;39.95;20.85;;;;;;;;;;4990687;28;20589;-67
2022/03/25 11:48:04;;;;;;;36.05;19.45;;;;;;;;;;4989818;28;20038;-67
2022/03/25 11:50:32;;;;;;;33.22;19.52;;;;;;;;;;4981932;28;20039;-65
2022/03/25 11:52:59;;;;;;;36.60;20.42;;;;;;;;;;4982915;28;20124;-65
2022/03/25 11:55:25;;;;;;;39.63;20.83;;;;;;;;;;4977912;28;20476;-65
2022/03/25 11:57:52;;;;;;;37.40;20.73;;;;;;;;;;4973280;28;20046;-65
2022/03/25 12:00:25;;;;;;;37.17;20.65;;;;;;;;;;4976644;28;20070;-65
2022/03/25 12:03:04;;;;;;;41.35;21.20;;;;;;;;;;4971035;28;20416;-65
2022/03/25 12:05:32;;;;;;;42.90;21.10;;;;;;;;;;4972175;28;20422;-65
2022/03/25 12:08:16;;;;;;;37.97;19.85;;;;;;;;;;4986314;28;20654;-65
2022/03/25 12:10:46;;;;;;;38.30;20.60;;;;;;;;;;4980489;28;20117;-65
2022/03/25 12:13:12;;;;;;;33.05;19.58;;;;;;;;;;4982316;28;20081;-65
2022/03/25 12:15:56;;;;;;;31.83;19.45;;;;;;;;;;4983114;28;20563;-65
2022/03/25 12:18:41;;;;;;;33.63;19.65;;;;;;;;;;4983911;28;20106;-65
2022/03/25 12:21:25;;;;;;;33.50;19.45;;;;;;;;;;4972861;28;20517;-65
2022/03/25 12:23:55;;;;;;;30.58;18.77;;;;;;;;;;4972022;28;20038;-65
2022/03/25 12:26:30;;;;;;;32.13;18.88;;;;;;;;;;4980834;28;20381;-65
2022/03/25 12:28:56;;;;;;;34.05;19.20;;;;;;;;;;4975776;28;20878;-65
2022/03/25 12:31:22;;;;;;;36.13;19.60;;;;;;;;;;4985500;28;20134;-65
2022/03/25 12:33:55;;;;;;;35.40;19.00;;;;;;;;;;4974943;28;20039;-66
2022/03/25 12:36:22;;;;;;;34.60;18.67;;;;;;;;;;4975758;28;20042;-66
2022/03/25 12:38:49;;;;;;;33.42;19.02;;;;;;;;;;4983368;28;20374;-66
2022/03/25 12:41:25;;;;;;;30.75;16.33;;;;;;;;;;4982375;28;20097;-66
2022/03/25 12:44:01;;;;;;;34.22;17.55;;;;;;;;;;4981580;28;20129;-66
2022/03/25 12:46:29;;;;;;;27.15;16.95;;;;;;;;;;4985028;28;20124;-66
2022/03/25 12:49:05;;;;;;;31.50;16.67;;;;;;;;;;4982604;28;20043;-70
2022/03/25 12:51:31;;;;;;;29.60;17.63;;;;;;;;;;4981707;28;20078;-70
2022/03/25 12:53:57;;;;;;;32.85;16.45;;;;;;;;;;4982585;28;20084;-68
2022/03/25 12:56:23;;;;;;;34.47;18.95;;;;;;;;;;4980982;28;20092;-68
2022/03/25 12:58:50;;;;;;;36.35;17.73;;;;;;;;;;4984323;28;20037;-67
2022/03/25 13:01:17;;;;;;;27.83;16.63;;;;;;;;;;4982231;28;20147;-68
2022/03/25 13:03:44;;;;;;;27.42;14.82;;;;;;;;;;4983856;28;20049;-62
2022/03/25 13:06:12;;;;;;;24.90;13.18;;;;;;;;;;4976705;28;20125;-62
2022/03/25 13:08:38;;;;;;;27.17;14.40;;;;;;;;;;4978066;28;20042;-63
2022/03/25 13:11:04;;;;;;;33.70;14.88;;;;;;;;;;4973209;28;20070;-63
2022/03/25 13:13:37;;;;;;;26.05;14.80;;;;;;;;;;4993274;28;20041;-63
2022/03/25 13:16:04;;;;;;;33.15;15.38;;;;;;;;;;4976224;28;20073;-64
2022/03/25 13:18:37;;;;;;;30.33;14.57;;;;;;;;;;4983086;28;20493;-63
2022/03/25 13:21:04;;;;;;;30.90;15.15;;;;;;;;;;4986850;28;20046;-64
2022/03/25 13:23:30;;;;;;;23.05;12.93;;;;;;;;;;4997038;28;20038;-63
2022/03/25 13:25:57;;;;;;;31.90;13.25;;;;;;;;;;4982279;28;20042;-64
2022/03/25 13:28:24;;;;;;;24.08;12.73;;;;;;;;;;4988702;28;20444;-63
2022/03/25 13:30:51;;;;;;;27.73;12.13;;;;;;;;;;4985078;28;20428;-63
2022/03/25 13:33:24;;;;;;;23.20;11.02;;;;;;;;;;4974505;28;20045;-64
2022/03/25 13:36:00;;;;;;;21.52;10.93;;;;;;;;;;4974675;28;20054;-63
2022/03/25 13:38:38;;;;;;;22.00;10.70;;;;;;;;;;4991925;28;20046;-63
2022/03/25 13:41:18;;;;;;;22.83;10.43;;;;;;;;;;4985827;28;20051;-63
2022/03/25 13:43:47;;;;;;;23.38;11.27;;;;;;;;;;4974627;28;20058;-63
2022/03/25 13:46:24;;;;;;;25.67;12.13;;;;;;;;;;4974744;28;20445;-63
2022/03/25 13:48:51;;;;;;;20.25;10.85;;;;;;;;;;4987505;28;20400;-63
2022/03/25 13:51:17;;;;;;;21.13;10.05;;;;;;;;;;4997922;28;20042;-63
2022/03/25 13:53:44;;;;;;;21.90;9.70;;;;;;;;;;4977546;28;20102;-63
2022/03/25 13:56:14;;;;;;;25.40;9.40;;;;;;;;;;4975919;28;20556;-63
2022/03/25 13:58:45;;;;;;;24.55;9.73;;;;;;;;;;4993231;28;20041;-64
2022/03/25 14:01:11;;;;;;;20.15;8.55;;;;;;;;;;4991017;28;20050;-62
2022/03/25 14:03:39;;;;;;;20.15;8.90;;;;;;;;;;4988819;28;20053;-63
2022/03/25 14:06:09;;;;;;;17.45;7.93;;;;;;;;;;4977802;28;20042;-63
2022/03/25 14:08:35;;;;;;;15.23;7.57;;;;;;;;;;4981088;28;20046;-62
2022/03/25 14:11:01;;;;;;;18.90;7.43;;;;;;;;;;4975936;28;20051;-64
2022/03/25 14:13:27;;;;;;;16.58;7.47;;;;;;;;;;4973949;28;20042;-61
2022/03/25 14:15:53;;;;;;;13.75;6.93;;;;;;;;;;4977495;28;20038;-60
2022/03/25 14:18:20;;;;;;;18.17;8.32;;;;;;;;;;4980171;28;20146;-61
2022/03/25 14:20:47;;;;;;;16.70;8.00;;;;;;;;;;4984387;28;20042;-64
2022/03/25 14:23:16;;;;;;;19.60;8.07;;;;;;;;;;4986183;28;20058;-64
2022/03/25 14:25:43;;;;;;;21.42;7.32;;;;;;;;;;4980392;28;20043;-66